Terminal Aerodrome Forecast
Issued by NWS Green Bay, WI

Home | Current Version | Previous Version | Text Only | Print | Product List | Glossary Off
Versions: 1 2 3 4 5 6 7 8 9 10 11 12 13 14 15 16 17 18 19 20 21 22 23 24 25 26 27 28 29 30 31 32 33 34 35

000
FTUS43 KGRB 250900 CCA
TAFGRB
TAF COR
KGRB 250949Z 2510/2606 17007KT P6SM BKN014 OVC090
      TEMPO 2512/2514 1SM TSRA BKN018CB
     FM251500 19007KT 6SM BR BKN035
     FM251900 21010G16KT 6SM HZ SCT035 PROB30 2522/2601 5SM TSRA
      OVC025CB=

USA.gov is the U.S. government's official web portal to all federal, state and local government web resources and services.